createdAt,value
2023-01-10T00:02:45.715Z,3.05
2023-01-10T00:07:47.441Z,2.83
2023-01-10T00:13:07.590Z,3.08
2023-01-10T00:18:09.633Z,3.35
2023-01-10T00:23:11.783Z,3.10
2023-01-10T00:28:19.457Z,2.90
2023-01-10T00:33:21.646Z,4.22
2023-01-10T00:38:23.694Z,4.00
2023-01-10T00:43:43.998Z,3.80
2023-01-10T00:48:45.652Z,3.90
2023-01-10T00:53:47.291Z,4.60
2023-01-10T00:58:48.903Z,4.50
2023-01-10T01:03:50.566Z,4.50
2023-01-10T01:08:52.280Z,4.35
2023-01-10T01:13:53.900Z,4.10
2023-01-10T01:18:55.606Z,4.38
2023-01-10T01:23:57.712Z,4.00
2023-01-10T01:28:59.369Z,4.50
2023-01-10T01:34:01.046Z,4.20
2023-01-10T01:39:03.787Z,5.00
2023-01-10T01:44:10.542Z,3.70
2023-01-10T01:49:21.024Z,4.40
2023-01-10T01:54:22.823Z,4.00
2023-01-10T01:59:35.394Z,4.35
2023-01-10T02:04:52.333Z,4.25
2023-01-10T02:10:06.125Z,4.60
2023-01-10T02:15:09.668Z,3.63
2023-01-10T02:20:12.886Z,4.55
2023-01-10T02:25:40.713Z,4.85
2023-01-10T02:31:09.817Z,4.78
2023-01-10T02:36:28.277Z,4.72
2023-01-10T02:41:49.392Z,4.45
2023-01-10T02:46:51.589Z,4.55
2023-01-10T02:51:53.334Z,4.40
2023-01-10T02:57:16.634Z,3.97
2023-01-10T03:02:52.227Z,4.10
2023-01-10T03:08:02.978Z,3.72
2023-01-10T03:13:14.565Z,4.38
2023-01-10T03:18:25.254Z,3.67
2023-01-10T03:23:27.770Z,4.03
2023-01-10T03:28:43.926Z,3.72
2023-01-10T03:33:46.814Z,4.07
2023-01-10T03:38:57.069Z,3.58
2023-01-10T03:44:37.966Z,4.28
2023-01-10T03:49:42.229Z,3.38
2023-01-10T03:54:45.695Z,4.05
2023-01-10T03:59:50.465Z,4.07
2023-01-10T04:04:52.049Z,3.95
2023-01-10T04:09:53.910Z,4.22
2023-01-10T04:14:55.634Z,4.75
2023-01-10T04:19:57.403Z,3.60
2023-01-10T04:24:59.152Z,4.10
2023-01-10T04:30:00.778Z,3.13
2023-01-10T04:35:02.519Z,3.97
2023-01-10T04:40:04.675Z,3.72
2023-01-10T04:45:07.058Z,3.75
2023-01-10T04:50:09.457Z,4.35
2023-01-10T04:55:11.238Z,3.92
2023-01-10T05:00:13.631Z,3.50
2023-01-10T05:05:15.442Z,3.80
2023-01-10T05:10:17.584Z,3.67
2023-01-10T05:15:21.106Z,3.92
2023-01-10T05:20:22.746Z,2.53
2023-01-10T05:25:24.409Z,3.22
2023-01-10T05:30:26.036Z,3.67
2023-01-10T05:35:28.673Z,3.80
2023-01-10T05:40:30.402Z,4.00
2023-01-10T05:45:32.168Z,3.78
2023-01-10T05:50:33.895Z,3.92
2023-01-10T05:55:35.601Z,4.28
2023-01-10T06:00:39.817Z,4.68
2023-01-10T06:05:41.659Z,4.00
2023-01-10T06:10:43.826Z,3.88
2023-01-10T06:15:45.666Z,3.90
2023-01-10T06:20:47.381Z,4.47
2023-01-10T06:25:49.062Z,3.65
2023-01-10T06:30:50.710Z,4.15
2023-01-10T06:35:52.425Z,3.55
2023-01-10T06:40:54.094Z,3.30
2023-01-10T06:45:56.805Z,3.78
2023-01-10T06:50:59.552Z,4.25
2023-01-10T06:56:01.391Z,3.25
2023-01-10T07:01:03.133Z,4.18
2023-01-10T07:06:09.799Z,4.05
2023-01-10T07:11:14.551Z,3.95
2023-01-10T07:16:16.686Z,4.47
2023-01-10T07:21:19.807Z,3.60
2023-01-10T07:26:21.591Z,3.90
2023-01-10T07:31:24.437Z,4.22
2023-01-10T07:36:27.466Z,4.78
2023-01-10T07:41:29.139Z,4.60
2023-01-10T07:46:31.006Z,4.95
2023-01-10T07:51:32.877Z,4.60
2023-01-10T07:56:34.558Z,5.25
2023-01-10T08:01:36.211Z,6.13
2023-01-10T08:06:37.934Z,5.97
2023-01-10T08:11:41.539Z,5.55
2023-01-10T08:16:43.421Z,5.90
2023-01-10T08:21:45.073Z,6.10
2023-01-10T08:26:46.829Z,6.32
2023-01-10T08:31:50.200Z,5.90
2023-01-10T08:36:53.261Z,6.05
2023-01-10T08:41:54.889Z,5.90
2023-01-10T08:46:56.880Z,6.70
2023-01-10T08:51:58.989Z,6.38
2023-01-10T08:57:01.600Z,6.35
2023-01-10T09:02:04.969Z,6.05
2023-01-10T09:07:06.783Z,5.27
2023-01-10T09:12:28.473Z,5.97
2023-01-10T09:17:30.158Z,5.03
2023-01-10T09:22:33.121Z,5.75
2023-01-10T09:27:35.035Z,5.90
2023-01-10T09:32:37.746Z,6.05
2023-01-10T09:37:49.876Z,6.28
2023-01-10T09:43:16.853Z,6.03
2023-01-10T09:48:26.877Z,5.30
2023-01-10T09:53:32.038Z,5.70
2023-01-10T09:58:35.466Z,5.30
2023-01-10T10:03:53.047Z,5.93
2023-01-10T10:08:56.535Z,4.25
2023-01-10T10:14:13.230Z,3.20
2023-01-10T10:19:23.540Z,4.05
2023-01-10T10:24:48.156Z,3.50
2023-01-10T10:30:16.902Z,3.30
2023-01-10T10:35:34.546Z,3.38
2023-01-10T10:40:40.239Z,3.22
2023-01-10T10:45:46.936Z,2.92
2023-01-10T10:51:10.335Z,3.17
2023-01-10T10:56:15.949Z,3.25
2023-01-10T11:01:19.797Z,3.03
2023-01-10T11:06:23.745Z,3.20
2023-01-10T11:11:31.913Z,3.35
2023-01-10T11:16:40.419Z,3.53
2023-01-10T11:21:56.173Z,3.10
2023-01-10T11:27:01.151Z,2.88
2023-01-10T11:32:15.232Z,2.97
2023-01-10T11:37:16.950Z,3.13
2023-01-10T11:42:29.850Z,3.60
2023-01-10T11:47:38.116Z,2.75
2023-01-10T11:52:45.863Z,3.70
2023-01-10T12:02:57.563Z,3.13
2023-01-10T12:08:07.876Z,3.20
2023-01-10T12:13:16.990Z,2.88
2023-01-10T12:18:19.650Z,3.63
2023-01-10T12:23:24.666Z,3.70
2023-01-10T12:28:30.057Z,2.90
2023-01-10T12:33:46.833Z,3.10
2023-01-10T12:39:03.718Z,3.53
2023-01-10T12:44:19.000Z,2.85
2023-01-10T12:49:26.427Z,3.22
2023-01-10T12:54:30.319Z,3.45
2023-01-10T12:59:38.320Z,2.72
2023-01-10T13:04:41.494Z,3.33
2023-01-10T13:09:44.281Z,3.67
2023-01-10T13:15:28.655Z,2.97
2023-01-10T13:20:38.189Z,3.17
2023-01-10T13:25:40.107Z,3.10
2023-01-10T13:30:42.158Z,2.60
2023-01-10T13:35:44.775Z,4.10
2023-01-10T13:41:04.470Z,2.63
2023-01-10T13:46:18.187Z,4.18
2023-01-10T13:51:23.398Z,2.97
2023-01-10T13:56:39.469Z,3.40
2023-01-10T14:02:00.227Z,3.88
2023-01-10T14:07:06.918Z,2.95
2023-01-10T14:12:35.381Z,3.28
2023-01-10T14:17:38.787Z,3.67
2023-01-10T14:22:45.006Z,2.40
2023-01-10T14:27:50.602Z,3.20
2023-01-10T14:32:57.681Z,3.70
2023-01-10T14:38:02.983Z,3.40
2023-01-10T14:43:09.459Z,3.40
2023-01-10T14:48:41.309Z,3.65
2023-01-10T14:53:43.074Z,4.38
2023-01-10T14:58:44.672Z,3.20
2023-01-10T15:03:47.177Z,3.58
2023-01-10T15:09:03.736Z,3.80
2023-01-10T15:14:08.255Z,3.50
2023-01-10T15:19:17.108Z,3.13
2023-01-10T15:24:36.704Z,3.78
2023-01-10T15:29:44.816Z,3.45
2023-01-10T15:34:49.766Z,4.10
2023-01-10T15:39:52.867Z,3.53
2023-01-10T15:44:55.736Z,3.97
2023-01-10T15:49:58.226Z,4.40
2023-01-10T15:55:00.040Z,4.38
2023-01-10T16:00:02.823Z,5.13
2023-01-10T16:05:11.683Z,4.55
2023-01-10T16:10:26.578Z,4.00
2023-01-10T16:15:35.565Z,4.13
2023-01-10T16:20:40.791Z,4.47
2023-01-10T16:25:47.013Z,4.60
2023-01-10T16:30:49.302Z,5.00
2023-01-10T16:35:53.962Z,4.32
2023-01-10T16:41:23.396Z,5.45
2023-01-10T16:46:25.089Z,4.78
2023-01-10T16:51:30.224Z,3.83
2023-01-10T16:56:31.984Z,3.42
2023-01-10T17:01:55.211Z,3.28
2023-01-10T17:06:57.202Z,4.35
2023-01-10T17:12:03.939Z,3.25
2023-01-10T17:17:05.823Z,3.70
2023-01-10T17:22:07.513Z,4.18
2023-01-10T17:27:09.177Z,3.50
2023-01-10T17:32:11.465Z,3.47
2023-01-10T17:37:13.119Z,4.05
2023-01-10T17:42:14.769Z,4.38
2023-01-10T17:47:16.576Z,3.90
2023-01-10T17:52:18.542Z,3.22
2023-01-10T17:57:20.206Z,3.78
2023-01-10T18:02:22.973Z,3.85
2023-01-10T18:07:24.856Z,3.85
2023-01-10T18:12:26.566Z,4.50
2023-01-10T18:17:28.489Z,4.72
2023-01-10T18:22:48.857Z,4.80
2023-01-10T18:27:52.369Z,4.50
2023-01-10T18:32:54.587Z,5.10
2023-01-10T18:37:57.375Z,4.22
2023-01-10T18:42:59.065Z,5.25
2023-01-10T18:48:02.094Z,3.75
2023-01-10T18:53:04.507Z,4.38
2023-01-10T18:58:06.321Z,3.53
2023-01-10T19:03:07.993Z,3.60
2023-01-10T19:08:09.680Z,2.50
2023-01-10T19:13:11.615Z,3.38
2023-01-10T19:18:13.732Z,2.72
2023-01-10T19:23:15.553Z,2.35
2023-01-10T19:28:17.260Z,1.70
2023-01-10T19:33:19.464Z,2.30
2023-01-10T19:38:21.498Z,2.20
2023-01-10T19:43:24.920Z,2.35
2023-01-10T19:48:26.624Z,3.17
2023-01-10T19:53:28.294Z,1.80
2023-01-10T19:58:30.496Z,2.33
2023-01-10T20:03:33.323Z,2.13
2023-01-10T20:08:35.001Z,2.08
2023-01-10T20:13:38.903Z,2.05
2023-01-10T20:18:41.519Z,2.03
2023-01-10T20:23:44.179Z,1.83
2023-01-10T20:28:47.969Z,2.35
2023-01-10T20:33:50.219Z,2.05
2023-01-10T20:38:52.411Z,1.90
2023-01-10T20:43:55.411Z,1.80
2023-01-10T20:48:58.282Z,1.40
2023-01-10T20:54:01.712Z,2.00
2023-01-10T20:59:04.001Z,2.38
2023-01-10T21:04:07.052Z,2.10
2023-01-10T21:09:11.559Z,2.40
2023-01-10T21:14:13.300Z,2.38
2023-01-10T21:19:15.763Z,1.95
2023-01-10T21:24:18.915Z,1.70
2023-01-10T21:29:20.597Z,1.95
2023-01-10T21:34:22.227Z,1.33
2023-01-10T21:39:23.950Z,1.65
2023-01-10T21:44:25.910Z,1.45
2023-01-10T21:49:27.769Z,1.50
2023-01-10T21:54:29.539Z,1.80
2023-01-10T21:59:33.907Z,1.70
2023-01-10T22:04:35.565Z,2.00
2023-01-10T22:09:37.277Z,1.50
2023-01-10T22:14:38.939Z,2.10
2023-01-10T22:19:41.247Z,1.60
2023-01-10T22:24:46.576Z,1.58
2023-01-10T22:29:48.280Z,1.77
2023-01-10T22:34:49.936Z,1.88
2023-01-10T22:39:51.571Z,1.38
2023-01-10T22:44:53.216Z,1.20
2023-01-10T22:49:54.948Z,1.40
2023-01-10T22:54:56.587Z,1.20
2023-01-10T22:59:58.321Z,1.83
2023-01-10T23:04:59.967Z,1.30
2023-01-10T23:10:01.733Z,1.50
2023-01-10T23:15:03.629Z,1.35
2023-01-10T23:20:05.957Z,1.10
2023-01-10T23:25:07.893Z,1.33
2023-01-10T23:30:10.396Z,1.40
2023-01-10T23:35:12.091Z,1.48
2023-01-10T23:40:13.794Z,1.63
2023-01-10T23:45:16.484Z,1.20
2023-01-10T23:50:20.068Z,1.23
2023-01-10T23:55:21.776Z,1.20
